createdAt,value
2023-02-23T00:02:30.924Z,27.40
2023-02-23T00:04:59.054Z,32.50
2023-02-23T00:07:27.284Z,33.90
2023-02-23T00:09:57.270Z,34.10
2023-02-23T00:12:27.291Z,31.60
2023-02-23T00:14:55.637Z,29.10
2023-02-23T00:17:24.547Z,29.60
2023-02-23T00:19:52.901Z,31.00
2023-02-23T00:22:21.016Z,33.20
2023-02-23T00:24:50.392Z,32.70
2023-02-23T00:27:21.213Z,26.50
2023-02-23T00:29:49.907Z,33.50
2023-02-23T00:32:20.217Z,30.70
2023-02-23T00:34:51.925Z,28.90
2023-02-23T00:37:22.029Z,25.90
2023-02-23T00:39:50.550Z,29.90
2023-02-23T00:42:18.715Z,29.80
2023-02-23T00:44:49.036Z,33.00
2023-02-23T00:47:17.319Z,29.80
2023-02-23T00:49:45.738Z,29.70
2023-02-23T00:52:14.833Z,29.40
2023-02-23T00:54:43.367Z,38.40
2023-02-23T00:57:11.527Z,34.60
2023-02-23T00:59:40.478Z,34.00
2023-02-23T01:02:09.348Z,29.80
2023-02-23T01:04:37.442Z,35.10
2023-02-23T01:07:06.882Z,33.00
2023-02-23T01:09:35.306Z,32.80
2023-02-23T01:12:07.758Z,28.60
2023-02-23T01:14:38.040Z,29.00
2023-02-23T01:17:07.631Z,32.20
2023-02-23T01:19:39.129Z,33.50
2023-02-23T01:22:07.480Z,35.10
2023-02-23T01:24:36.116Z,38.80
2023-02-23T01:29:36.286Z,29.90
2023-02-23T01:32:05.486Z,36.50
2023-02-23T01:34:38.864Z,33.00
2023-02-23T01:37:09.110Z,34.10
2023-02-23T01:39:38.397Z,36.00
2023-02-23T01:42:26.463Z,43.20
2023-02-23T01:45:24.026Z,33.80
2023-02-23T01:47:53.097Z,28.30
2023-02-23T01:50:25.364Z,40.70
2023-02-23T01:52:53.754Z,30.40
2023-02-23T01:55:25.377Z,26.20
2023-02-23T01:57:56.605Z,31.00
2023-02-23T02:02:54.521Z,34.30
2023-02-23T02:05:23.309Z,36.70
2023-02-23T02:07:58.912Z,36.80
2023-02-23T02:10:46.917Z,32.30
2023-02-23T02:13:19.187Z,34.90
2023-02-23T02:16:01.250Z,39.70
2023-02-23T02:19:03.360Z,37.70
2023-02-23T02:21:31.571Z,34.70
2023-02-23T02:24:08.444Z,31.30
2023-02-23T02:27:05.234Z,36.10
2023-02-23T02:30:15.903Z,38.70
2023-02-23T02:33:02.205Z,43.70
2023-02-23T02:35:48.605Z,43.60
2023-02-23T02:38:27.305Z,40.20
2023-02-23T02:41:12.218Z,39.80
2023-02-23T02:43:51.095Z,34.40
2023-02-23T02:46:27.703Z,37.70
2023-02-23T02:49:17.879Z,41.10
2023-02-23T02:51:49.384Z,37.30
2023-02-23T02:54:26.968Z,38.90
2023-02-23T02:56:57.831Z,38.60
2023-02-23T02:59:46.260Z,41.80
2023-02-23T03:02:38.671Z,42.20
2023-02-23T03:05:46.473Z,40.90
2023-02-23T03:08:53.238Z,41.10
2023-02-23T03:11:40.217Z,35.70
2023-02-23T03:14:53.177Z,37.40
2023-02-23T03:17:43.574Z,38.80
2023-02-23T03:20:31.192Z,37.40
2023-02-23T03:23:55.692Z,36.50
2023-02-23T03:26:51.771Z,41.20
2023-02-23T03:29:51.093Z,35.70
2023-02-23T03:32:45.986Z,33.00
2023-02-23T03:35:58.372Z,32.70
2023-02-23T03:38:53.917Z,32.40
2023-02-23T03:41:40.965Z,31.90
2023-02-23T03:44:30.222Z,36.60
2023-02-23T03:47:17.177Z,35.10
2023-02-23T03:50:06.701Z,37.90
2023-02-23T03:53:03.750Z,32.50
2023-02-23T03:55:53.365Z,36.00
2023-02-23T03:58:43.747Z,35.70
2023-02-23T04:01:30.408Z,36.60
2023-02-23T04:04:17.492Z,37.00
2023-02-23T04:07:05.320Z,37.70
2023-02-23T04:09:52.082Z,37.50
2023-02-23T04:12:46.499Z,38.20
2023-02-23T04:15:39.584Z,31.10
2023-02-23T04:18:08.439Z,32.00
2023-02-23T04:20:36.400Z,34.20
2023-02-23T04:23:04.476Z,40.00
2023-02-23T04:25:33.063Z,40.10
2023-02-23T04:28:01.252Z,35.80
2023-02-23T04:30:30.482Z,33.40
2023-02-23T04:32:59.509Z,40.30
2023-02-23T04:35:30.004Z,34.60
2023-02-23T04:38:01.521Z,38.50
2023-02-23T04:40:30.240Z,34.40
2023-02-23T04:42:58.765Z,33.00
2023-02-23T04:45:27.469Z,34.80
2023-02-23T04:47:56.365Z,38.60
2023-02-23T04:50:25.240Z,38.20
2023-02-23T04:52:53.438Z,36.00
2023-02-23T04:55:23.317Z,33.50
2023-02-23T04:57:56.450Z,34.50
2023-02-23T05:00:24.616Z,37.30
2023-02-23T05:02:52.958Z,34.80
2023-02-23T05:05:21.680Z,36.20
2023-02-23T05:07:50.671Z,38.30
2023-02-23T05:10:19.227Z,36.30
2023-02-23T05:12:47.567Z,40.20
2023-02-23T05:15:16.434Z,35.70
2023-02-23T05:17:44.903Z,41.10
2023-02-23T05:20:18.723Z,45.50
2023-02-23T05:22:46.690Z,46.80
2023-02-23T05:25:14.816Z,43.10
2023-02-23T05:27:42.940Z,43.90
2023-02-23T05:30:12.120Z,38.70
2023-02-23T05:32:43.508Z,38.90
2023-02-23T05:35:13.083Z,45.70
2023-02-23T05:37:41.545Z,42.00
2023-02-23T05:40:10.719Z,48.40
2023-02-23T05:42:41.789Z,42.90
2023-02-23T05:45:10.129Z,46.90
2023-02-23T05:47:39.245Z,40.70
2023-02-23T05:50:12.562Z,43.00
2023-02-23T05:52:41.653Z,35.60
2023-02-23T05:55:11.710Z,40.10
2023-02-23T05:57:41.123Z,46.30
2023-02-23T06:00:10.649Z,36.00
2023-02-23T06:02:40.149Z,36.10
2023-02-23T06:05:09.685Z,32.40
2023-02-23T06:07:37.795Z,30.20
2023-02-23T06:10:07.818Z,36.30
2023-02-23T06:12:36.574Z,29.70
2023-02-23T06:15:05.075Z,32.90
2023-02-23T06:17:35.782Z,27.20
2023-02-23T06:20:05.282Z,27.60
2023-02-23T06:22:36.984Z,46.90
2023-02-23T06:25:08.922Z,27.60
2023-02-23T06:27:37.182Z,30.50
2023-02-23T06:30:06.056Z,22.90
2023-02-23T06:32:34.335Z,26.60
2023-02-23T06:35:06.089Z,24.70
2023-02-23T06:37:35.054Z,26.90
2023-02-23T06:40:05.986Z,23.00
2023-02-23T06:42:36.035Z,19.60
2023-02-23T06:45:04.846Z,23.90
2023-02-23T06:47:34.235Z,38.70
2023-02-23T06:50:08.247Z,24.70
2023-02-23T06:52:36.408Z,24.70
2023-02-23T06:55:05.373Z,22.70
2023-02-23T06:57:34.391Z,20.00
2023-02-23T07:00:03.544Z,21.70
2023-02-23T07:02:31.911Z,20.60
2023-02-23T07:05:00.235Z,16.60
2023-02-23T07:07:28.265Z,21.00
2023-02-23T07:09:56.788Z,17.90
2023-02-23T07:12:25.323Z,19.60
2023-02-23T07:14:54.957Z,17.70
2023-02-23T07:17:23.074Z,20.30
2023-02-23T07:19:52.698Z,17.10
2023-02-23T07:22:22.311Z,16.80
2023-02-23T07:24:50.304Z,15.80
2023-02-23T07:27:18.313Z,15.20
2023-02-23T07:29:46.331Z,16.00
2023-02-23T07:32:14.427Z,16.20
2023-02-23T07:34:42.927Z,19.10
2023-02-23T07:37:11.131Z,15.00
2023-02-23T07:39:39.454Z,21.30
2023-02-23T07:42:07.834Z,20.90
2023-02-23T07:44:38.251Z,61.60
2023-02-23T07:47:07.112Z,14.60
2023-02-23T07:49:35.392Z,15.70
2023-02-23T07:52:03.832Z,16.70
2023-02-23T07:54:31.937Z,18.90
2023-02-23T07:57:00.531Z,16.30
2023-02-23T07:59:28.556Z,16.10
2023-02-23T08:01:57.798Z,20.20
2023-02-23T08:04:26.014Z,14.30
2023-02-23T08:06:55.249Z,17.20
2023-02-23T08:09:23.540Z,13.50
2023-02-23T08:11:53.010Z,16.40
2023-02-23T08:14:23.646Z,15.00
2023-02-23T08:16:51.851Z,14.30
2023-02-23T08:19:24.634Z,16.00
2023-02-23T08:21:53.336Z,17.20
2023-02-23T08:24:25.448Z,16.70
2023-02-23T08:26:53.670Z,16.90
2023-02-23T08:29:22.374Z,13.70
2023-02-23T08:31:52.144Z,14.00
2023-02-23T08:34:22.832Z,16.40
2023-02-23T08:36:50.877Z,16.00
2023-02-23T08:39:19.267Z,19.90
2023-02-23T08:41:47.371Z,23.20
2023-02-23T08:44:17.238Z,16.90
2023-02-23T08:46:46.044Z,22.20
2023-02-23T08:49:13.997Z,16.70
2023-02-23T08:51:43.504Z,15.40
2023-02-23T08:54:14.725Z,14.90
2023-02-23T08:56:43.000Z,13.90
2023-02-23T08:59:11.929Z,15.10
2023-02-23T09:01:43.625Z,16.50
2023-02-23T09:04:11.692Z,17.90
2023-02-23T09:06:41.593Z,13.30
2023-02-23T09:09:10.523Z,18.40
2023-02-23T09:11:38.610Z,13.30
2023-02-23T09:14:06.670Z,11.40
2023-02-23T09:16:35.779Z,11.50
2023-02-23T09:19:05.497Z,12.00
2023-02-23T09:21:34.529Z,13.30
2023-02-23T09:24:02.637Z,12.90
2023-02-23T09:26:33.410Z,13.20
2023-02-23T09:29:01.677Z,14.40
2023-02-23T09:31:30.548Z,16.60
2023-02-23T09:34:00.591Z,12.60
2023-02-23T09:36:29.285Z,12.50
2023-02-23T09:38:57.964Z,12.80
2023-02-23T09:41:25.921Z,12.80
2023-02-23T09:44:34.145Z,11.00
2023-02-23T09:47:11.803Z,10.70
2023-02-23T09:49:41.750Z,9.80
2023-02-23T09:52:33.976Z,15.30
2023-02-23T09:55:02.612Z,12.40
2023-02-23T09:57:41.873Z,12.40
2023-02-23T10:00:27.877Z,12.20
2023-02-23T10:03:02.214Z,17.10
2023-02-23T10:05:31.973Z,11.80
2023-02-23T10:08:07.596Z,12.50
2023-02-23T10:10:45.709Z,12.70
2023-02-23T10:13:29.341Z,12.90
2023-02-23T10:16:03.596Z,12.50
2023-02-23T10:18:54.558Z,16.30
2023-02-23T10:21:36.446Z,16.90
2023-02-23T10:24:14.330Z,16.00
2023-02-23T10:26:47.535Z,13.10
2023-02-23T10:29:29.801Z,13.30
2023-02-23T10:32:03.107Z,13.40
2023-02-23T10:34:31.183Z,15.60
2023-02-23T10:37:04.317Z,15.60
2023-02-23T10:39:34.704Z,11.00
2023-02-23T10:42:05.228Z,12.50
2023-02-23T10:44:33.504Z,11.60
2023-02-23T10:47:13.866Z,14.00
2023-02-23T10:49:52.962Z,13.20
2023-02-23T10:52:42.930Z,11.30
2023-02-23T10:55:41.568Z,12.90
2023-02-23T10:58:18.448Z,13.50
2023-02-23T11:00:52.816Z,13.20
2023-02-23T11:03:31.061Z,10.00
2023-02-23T11:06:02.527Z,11.50
2023-02-23T11:08:35.804Z,10.70
2023-02-23T11:11:15.933Z,11.80
2023-02-23T11:13:46.625Z,11.50
2023-02-23T11:16:25.633Z,10.70
2023-02-23T11:19:04.363Z,11.70
2023-02-23T11:21:38.881Z,11.70
2023-02-23T11:24:21.486Z,11.70
2023-02-23T11:26:51.452Z,10.50
2023-02-23T11:29:38.052Z,15.80
2023-02-23T11:32:14.323Z,12.00
2023-02-23T11:34:43.670Z,12.70
2023-02-23T11:37:15.144Z,15.00
2023-02-23T11:39:58.249Z,14.70
2023-02-23T11:42:27.757Z,14.40
2023-02-23T11:45:08.179Z,10.80
2023-02-23T11:50:07.377Z,14.80
2023-02-23T11:52:35.953Z,12.90
2023-02-23T11:55:05.606Z,16.90
2023-02-23T11:57:34.160Z,12.70
2023-02-23T12:00:08.514Z,15.70
2023-02-23T12:02:50.902Z,17.00
2023-02-23T12:05:21.382Z,16.60
2023-02-23T12:08:04.691Z,14.20
2023-02-23T12:10:51.426Z,14.20
2023-02-23T12:13:43.890Z,14.60
2023-02-23T12:16:22.337Z,13.70
2023-02-23T12:18:52.475Z,19.00
2023-02-23T12:21:23.021Z,14.60
2023-02-23T12:23:52.510Z,15.10
2023-02-23T12:26:22.130Z,14.50
2023-02-23T12:28:59.162Z,17.80
2023-02-23T12:31:54.458Z,16.20
2023-02-23T12:34:41.383Z,16.30
2023-02-23T12:37:28.535Z,19.80
2023-02-23T12:40:22.801Z,17.10
2023-02-23T12:43:00.864Z,26.80
2023-02-23T12:45:37.325Z,18.90
2023-02-23T12:48:07.004Z,19.00
2023-02-23T12:50:42.758Z,17.00
2023-02-23T12:53:42.326Z,20.50
2023-02-23T12:56:27.955Z,16.10
2023-02-23T12:59:13.758Z,19.60
2023-02-23T13:01:46.558Z,44.30
2023-02-23T13:04:33.590Z,15.30
2023-02-23T13:07:05.384Z,23.20
2023-02-23T13:09:35.154Z,21.30
2023-02-23T13:12:16.919Z,17.50
2023-02-23T13:15:12.601Z,21.10
2023-02-23T13:18:02.637Z,18.70
2023-02-23T13:20:32.984Z,21.40
2023-02-23T13:23:31.120Z,29.10
2023-02-23T13:26:10.045Z,20.80
2023-02-23T13:28:59.105Z,19.00
2023-02-23T13:31:29.434Z,20.20
2023-02-23T13:34:02.410Z,18.00
2023-02-23T13:36:29.512Z,20.90
2023-02-23T13:39:21.829Z,25.80
2023-02-23T13:41:51.512Z,21.70
2023-02-23T13:44:32.209Z,16.50
2023-02-23T13:47:14.306Z,22.30
2023-02-23T13:50:02.377Z,25.00
2023-02-23T13:52:31.343Z,24.90
2023-02-23T13:55:03.059Z,28.10
2023-02-23T13:57:30.741Z,25.00
2023-02-23T13:59:57.844Z,19.60
2023-02-23T14:02:27.989Z,25.30
2023-02-23T14:05:01.251Z,21.30
2023-02-23T14:07:30.359Z,19.80
2023-02-23T14:10:07.516Z,30.70
2023-02-23T14:12:39.982Z,29.20
2023-02-23T14:15:26.769Z,28.90
2023-02-23T14:18:01.780Z,27.30
2023-02-23T14:20:38.787Z,21.10
2023-02-23T14:23:21.088Z,22.50
2023-02-23T14:25:52.019Z,21.90
2023-02-23T14:31:25.597Z,26.10
2023-02-23T14:33:59.686Z,28.30
2023-02-23T14:36:28.467Z,29.00
2023-02-23T14:38:55.621Z,20.90
2023-02-23T14:41:45.011Z,24.30
2023-02-23T14:44:28.252Z,25.90
2023-02-23T14:47:11.544Z,25.30
2023-02-23T14:49:47.211Z,25.90
2023-02-23T14:52:27.611Z,26.10
2023-02-23T14:55:12.413Z,29.30
2023-02-23T14:57:42.400Z,31.90
2023-02-23T15:00:22.425Z,24.10
2023-02-23T15:02:56.395Z,28.20
2023-02-23T15:05:28.518Z,29.10
2023-02-23T15:07:58.054Z,31.70
2023-02-23T15:10:57.934Z,27.40
2023-02-23T15:16:15.481Z,27.50
2023-02-23T15:18:42.856Z,28.90
2023-02-23T15:21:19.195Z,31.00
2023-02-23T15:23:58.058Z,26.40
2023-02-23T15:26:34.500Z,28.70
2023-02-23T15:29:10.368Z,30.70
2023-02-23T15:31:40.301Z,30.70
2023-02-23T15:34:10.458Z,34.40
2023-02-23T15:36:39.435Z,35.80
2023-02-23T15:39:07.056Z,32.80
2023-02-23T15:41:36.302Z,28.30
2023-02-23T15:44:20.094Z,30.80
2023-02-23T15:46:51.047Z,30.90
2023-02-23T15:49:19.789Z,42.40
2023-02-23T15:51:48.961Z,33.00
2023-02-23T15:54:33.012Z,38.40
2023-02-23T15:57:07.457Z,46.10
2023-02-23T15:59:38.317Z,36.20
2023-02-23T16:02:18.622Z,35.40
2023-02-23T16:04:52.086Z,44.80
2023-02-23T16:07:23.727Z,42.90
2023-02-23T16:10:04.969Z,50.90
2023-02-23T16:15:01.052Z,43.20
2023-02-23T16:17:38.475Z,41.90
2023-02-23T16:20:34.054Z,36.70
2023-02-23T16:23:02.436Z,38.80
2023-02-23T16:25:29.799Z,47.00
2023-02-23T16:28:04.321Z,39.60
2023-02-23T16:30:31.999Z,48.70
2023-02-23T16:33:10.968Z,42.50
2023-02-23T16:35:48.890Z,39.70
2023-02-23T16:38:32.906Z,40.80
2023-02-23T16:40:59.650Z,47.20
2023-02-23T16:43:26.534Z,51.40
2023-02-23T16:45:53.372Z,51.00
2023-02-23T16:48:20.477Z,52.80
2023-02-23T16:50:49.979Z,54.90
2023-02-23T16:53:16.698Z,50.10
2023-02-23T16:55:55.308Z,48.80
2023-02-23T16:58:24.106Z,65.00
2023-02-23T17:00:53.054Z,65.20
2023-02-23T17:03:24.441Z,54.10
2023-02-23T17:05:52.097Z,63.90
2023-02-23T17:08:18.823Z,62.70
2023-02-23T17:10:46.991Z,62.90
2023-02-23T17:13:18.856Z,54.70
2023-02-23T17:15:49.946Z,57.40
2023-02-23T17:18:18.556Z,64.00
2023-02-23T17:20:45.225Z,48.00
2023-02-23T17:23:14.206Z,65.10
2023-02-23T17:25:42.113Z,45.70
2023-02-23T17:28:09.221Z,53.70
2023-02-23T17:30:38.918Z,58.60
2023-02-23T17:33:06.335Z,53.30
2023-02-23T17:35:36.703Z,47.10
2023-02-23T17:40:35.832Z,47.10
2023-02-23T17:43:04.712Z,58.80
2023-02-23T17:45:32.063Z,50.20
2023-02-23T17:48:00.550Z,56.70
2023-02-23T17:50:27.398Z,54.20
2023-02-23T17:52:54.440Z,61.30
2023-02-23T17:55:21.590Z,59.30
2023-02-23T17:57:48.861Z,63.50
2023-02-23T18:00:16.585Z,57.30
2023-02-23T18:02:44.573Z,66.40
2023-02-23T18:05:12.648Z,57.50
2023-02-23T18:07:43.314Z,57.90
2023-02-23T18:10:13.001Z,61.70
2023-02-23T18:12:41.154Z,54.70
2023-02-23T18:15:08.513Z,54.00
2023-02-23T18:17:36.532Z,54.70
2023-02-23T18:20:06.018Z,55.20
2023-02-23T18:22:33.572Z,62.00
2023-02-23T18:25:00.798Z,70.70
2023-02-23T18:27:27.669Z,45.90
2023-02-23T18:29:54.380Z,64.40
2023-02-23T18:32:21.573Z,49.80
2023-02-23T18:34:48.368Z,51.10
2023-02-23T18:37:24.594Z,57.20
2023-02-23T18:39:52.713Z,59.30
2023-02-23T18:42:20.343Z,60.60
2023-02-23T18:44:50.332Z,53.50
2023-02-23T18:47:17.346Z,52.20
2023-02-23T18:49:44.426Z,60.50
2023-02-23T18:52:12.352Z,54.80
2023-02-23T18:54:41.257Z,58.60
2023-02-23T18:57:08.507Z,67.30
2023-02-23T18:59:38.918Z,56.60
2023-02-23T19:02:05.961Z,57.00
2023-02-23T19:04:33.659Z,54.00
2023-02-23T19:07:00.681Z,59.70
2023-02-23T19:09:27.397Z,53.20
2023-02-23T19:11:55.600Z,55.80
2023-02-23T19:14:40.991Z,48.30
2023-02-23T19:17:12.127Z,45.80
2023-02-23T19:19:38.877Z,45.00
2023-02-23T19:22:08.902Z,55.70
2023-02-23T19:24:37.174Z,55.90
2023-02-23T19:27:09.829Z,65.80
2023-02-23T19:29:37.103Z,56.40
2023-02-23T19:32:05.100Z,60.10
2023-02-23T19:34:32.765Z,52.30
2023-02-23T19:37:02.848Z,71.50
2023-02-23T19:39:32.531Z,64.90
2023-02-23T19:41:59.694Z,62.30
2023-02-23T19:44:29.149Z,53.80
2023-02-23T19:46:56.702Z,51.60
2023-02-23T19:49:25.055Z,63.20
2023-02-23T19:51:52.392Z,64.40
2023-02-23T19:54:19.717Z,58.30
2023-02-23T19:56:49.329Z,52.40
2023-02-23T19:59:16.426Z,56.10
2023-02-23T20:01:45.289Z,53.80
2023-02-23T20:04:12.232Z,59.40
2023-02-23T20:06:46.417Z,52.70
2023-02-23T20:09:13.391Z,56.30
2023-02-23T20:11:42.003Z,48.60
2023-02-23T20:14:09.389Z,55.50
2023-02-23T20:16:36.089Z,50.90
2023-02-23T20:19:08.599Z,60.10
2023-02-23T20:21:36.443Z,56.60
2023-02-23T20:24:04.902Z,43.70
2023-02-23T20:26:34.874Z,48.40
2023-02-23T20:29:04.216Z,54.80
2023-02-23T20:31:34.479Z,46.10
2023-02-23T20:34:03.960Z,37.00
2023-02-23T20:36:33.233Z,40.00
2023-02-23T20:39:00.075Z,48.00
2023-02-23T20:41:31.009Z,50.30
2023-02-23T20:44:00.114Z,47.30
2023-02-23T20:46:27.750Z,49.30
2023-02-23T20:48:55.023Z,44.30
2023-02-23T20:51:23.318Z,42.60
2023-02-23T20:53:50.088Z,42.40
2023-02-23T20:56:18.469Z,44.10
2023-02-23T20:58:45.633Z,44.30
2023-02-23T21:01:18.844Z,43.20
2023-02-23T21:03:46.117Z,35.60
2023-02-23T21:06:13.151Z,46.40
2023-02-23T21:08:42.155Z,47.60
2023-02-23T21:11:09.730Z,34.70
2023-02-23T21:13:36.414Z,44.50
2023-02-23T21:16:04.338Z,45.80
2023-02-23T21:18:31.377Z,45.50
2023-02-23T21:20:58.767Z,47.60
2023-02-23T21:23:25.400Z,50.80
2023-02-23T21:25:53.536Z,47.40
2023-02-23T21:28:43.020Z,56.50
2023-02-23T21:31:11.649Z,40.80
2023-02-23T21:33:40.812Z,48.30
2023-02-23T21:36:09.887Z,44.70
2023-02-23T21:38:37.623Z,50.20
2023-02-23T21:41:04.569Z,39.00
2023-02-23T21:43:34.305Z,43.00
2023-02-23T21:46:09.462Z,43.40
2023-02-23T21:48:36.437Z,48.10
2023-02-23T21:51:04.985Z,50.80
2023-02-23T21:53:33.173Z,67.10
2023-02-23T21:56:14.323Z,63.00
2023-02-23T21:58:47.251Z,62.40
2023-02-23T22:01:28.016Z,57.00
2023-02-23T22:06:24.516Z,53.30
2023-02-23T22:08:53.182Z,46.10
2023-02-23T22:11:24.035Z,46.60
2023-02-23T22:16:20.982Z,26.70
2023-02-23T22:18:47.850Z,43.00
2023-02-23T22:21:20.234Z,38.20
2023-02-23T22:23:49.474Z,37.00
2023-02-23T22:26:17.223Z,39.70
2023-02-23T22:28:43.881Z,36.30
2023-02-23T22:31:11.904Z,36.80
2023-02-23T22:33:41.023Z,40.50
2023-02-23T22:36:09.816Z,38.90
2023-02-23T22:38:38.295Z,36.50
2023-02-23T22:41:08.482Z,32.10
2023-02-23T22:43:36.592Z,44.40
2023-02-23T22:46:03.501Z,35.90
2023-02-23T22:48:32.095Z,39.20
2023-02-23T22:50:59.076Z,37.50
2023-02-23T22:53:26.718Z,38.20
2023-02-23T22:55:54.152Z,35.90
2023-02-23T22:58:23.764Z,25.70
2023-02-23T23:01:02.157Z,33.10
2023-02-23T23:03:41.803Z,25.70
2023-02-23T23:06:09.939Z,37.20
2023-02-23T23:08:42.428Z,34.70
2023-02-23T23:13:43.925Z,34.10
2023-02-23T23:16:29.063Z,34.20
2023-02-23T23:19:03.421Z,42.30
2023-02-23T23:21:32.268Z,31.50
2023-02-23T23:24:00.622Z,46.40
2023-02-23T23:26:29.179Z,49.60
2023-02-23T23:28:57.260Z,41.90
2023-02-23T23:31:30.098Z,46.20
2023-02-23T23:34:01.933Z,32.10
2023-02-23T23:36:33.944Z,32.30
2023-02-23T23:39:01.418Z,35.90
2023-02-23T23:41:29.072Z,34.60
2023-02-23T23:43:57.295Z,42.10
2023-02-23T23:46:29.236Z,32.10
2023-02-23T23:49:01.951Z,32.90
2023-02-23T23:51:44.822Z,32.50
2023-02-23T23:54:13.291Z,41.20
2023-02-23T23:56:40.511Z,31.90
2023-02-23T23:59:15.002Z,33.60
